Time;durP1;ratioP1;P1;durP2;ratioP2;P2;SDS_P1;SDS_P2;PMS_P1;PMS_P2;Temp;Humidity;BMP_temperature;BMP_pressure;BME280_temperature;BME280_humidity;BME280_pressure;Samples;Min_cycle;Max_cycle;Signal;HPM_P1;HPM_P2
2022/01/08 00:00:30;;;;;;;0.50;0.50;;;3.80;99.90;;;;;;4945463;28;21371;-89
2022/01/08 00:02:56;;;;;;;0.43;0.43;;;3.90;99.90;;;;;;4963300;28;20786;-87
2022/01/08 00:05:22;;;;;;;0.83;0.83;;;3.80;99.90;;;;;;4946056;28;20274;-89
2022/01/08 00:07:47;;;;;;;0.40;0.40;;;3.80;99.90;;;;;;4977685;28;20623;-88
2022/01/08 00:10:13;;;;;;;3.60;1.37;;;3.80;99.90;;;;;;4962096;28;20293;-87
2022/01/08 00:12:39;;;;;;;4.57;0.60;;;3.80;99.90;;;;;;4960943;28;20223;-87
2022/01/08 00:15:07;;;;;;;0.20;0.20;;;3.80;99.90;;;;;;4977923;28;20216;-87
2022/01/08 00:17:33;;;;;;;4.80;1.30;;;3.80;99.90;;;;;;4975296;28;20251;-87
2022/01/08 00:19:59;;;;;;;0.40;0.40;;;3.90;99.90;;;;;;4944995;28;20192;-87
2022/01/08 00:22:25;;;;;;;0.47;0.47;;;3.90;99.90;;;;;;4945094;28;20286;-87
2022/01/08 00:24:52;;;;;;;6.60;2.23;;;3.90;99.90;;;;;;4976429;28;20233;-88
2022/01/08 00:27:23;;;;;;;17.37;0.60;;;3.90;99.90;;;;;;4947182;28;20216;-88
2022/01/08 00:29:49;;;;;;;0.50;0.50;;;4.00;99.90;;;;;;4975661;28;20180;-88
2022/01/08 00:32:16;;;;;;;0.40;0.40;;;4.00;99.90;;;;;;4961807;28;20214;-88
2022/01/08 00:34:43;;;;;;;0.47;0.47;;;4.00;99.90;;;;;;4960399;28;20212;-87
2022/01/08 00:37:09;;;;;;;3.93;0.60;;;4.10;99.90;;;;;;4960537;28;20204;-87
2022/01/08 00:39:35;;;;;;;7.57;1.03;;;4.10;99.90;;;;;;4979814;28;20719;-88
2022/01/08 00:42:01;;;;;;;0.40;0.40;;;4.20;99.90;;;;;;4978209;28;20251;-87
2022/01/08 00:44:28;;;;;;;0.83;0.57;;;4.20;99.90;;;;;;4962339;28;20669;-88
2022/01/08 00:46:54;;;;;;;0.53;0.53;;;4.20;99.90;;;;;;4968824;28;20220;-89
2022/01/08 00:49:20;;;;;;;0.33;0.33;;;4.20;99.90;;;;;;4961887;28;20589;-87
2022/01/08 00:51:45;;;;;;;0.43;0.43;;;4.10;99.90;;;;;;4944620;28;20239;-88
2022/01/08 00:54:11;;;;;;;4.90;0.60;;;4.10;99.90;;;;;;4962890;28;20213;-88
2022/01/08 00:56:37;;;;;;;0.23;0.23;;;4.00;99.90;;;;;;4959297;28;20215;-89
2022/01/08 00:59:04;;;;;;;5.20;2.97;;;3.90;99.90;;;;;;4943530;28;20226;-89
2022/01/08 01:01:30;;;;;;;19.13;1.13;;;3.90;99.90;;;;;;4960603;28;20205;-87
2022/01/08 01:03:56;;;;;;;0.50;0.50;;;3.90;99.90;;;;;;4946587;28;20637;-87
2022/01/08 01:06:22;;;;;;;0.30;0.30;;;3.80;99.90;;;;;;4964720;28;20246;-88
2022/01/08 01:08:50;;;;;;;0.40;0.40;;;3.70;99.90;;;;;;4987041;28;20180;-87
2022/01/08 01:11:16;;;;;;;0.40;0.40;;;3.70;99.90;;;;;;4970794;28;20196;-88
2022/01/08 01:13:41;;;;;;;0.33;0.33;;;3.60;99.90;;;;;;4970139;28;20219;-87
2022/01/08 01:16:07;;;;;;;0.13;0.13;;;3.50;99.90;;;;;;4970154;28;20251;-88
2022/01/08 01:18:33;;;;;;;0.43;0.43;;;3.60;99.90;;;;;;4971246;28;20249;-89
2022/01/08 01:20:59;;;;;;;0.87;0.87;;;3.60;99.90;;;;;;4955427;28;20684;-87
2022/01/08 01:23:36;;;;;;;3.17;1.37;;;3.60;99.90;;;;;;4971523;28;20226;-89
2022/01/08 01:26:05;;;;;;;0.57;0.57;;;3.60;99.90;;;;;;4973238;28;20215;-89
2022/01/08 01:47:03;;;;;;;2.30;0.50;;;4.50;99.90;;;;;;4986694;28;20218;-87
2022/01/08 01:49:42;;;;;;;0.20;0.20;;;4.50;99.90;;;;;;4986784;28;20688;-87
2022/01/08 01:52:10;;;;;;;0.20;0.20;;;4.50;99.90;;;;;;5002350;28;20757;-88
2022/01/08 01:54:36;;;;;;;0.47;0.47;;;4.40;99.90;;;;;;4970365;28;20225;-89
2022/01/08 01:57:05;;;;;;;0.30;0.30;;;4.50;99.90;;;;;;4968989;28;20220;-88
2022/01/08 01:59:33;;;;;;;1.60;0.87;;;4.40;99.90;;;;;;5002476;28;20561;-88
2022/01/08 02:02:00;;;;;;;0.50;0.50;;;4.40;99.90;;;;;;4987400;28;20246;-88
2022/01/08 02:04:26;;;;;;;0.20;0.20;;;4.50;99.90;;;;;;4986191;28;20231;-88
2022/01/08 02:06:52;;;;;;;0.37;0.37;;;4.40;99.90;;;;;;4969245;28;20218;-88
2022/01/08 02:09:18;;;;;;;0.20;0.20;;;4.40;99.90;;;;;;4970312;28;20204;-86
2022/01/08 02:12:12;;;;;;;0.30;0.30;;;4.40;99.90;;;;;;5002394;28;20195;-87
2022/01/08 02:14:38;;;;;;;0.40;0.40;;;4.40;99.90;;;;;;4985362;28;20640;-86
2022/01/08 02:17:05;;;;;;;0.50;0.50;;;4.40;99.90;;;;;;4970705;28;20211;-87
2022/01/08 02:19:31;;;;;;;4.07;0.40;;;4.40;99.90;;;;;;4970337;28;20239;-87
2022/01/08 02:21:59;;;;;;;0.40;0.40;;;4.50;99.90;;;;;;4970323;28;20228;-86
2022/01/08 02:24:26;;;;;;;0.27;0.27;;;4.60;99.90;;;;;;4986723;28;20228;-87
2022/01/08 02:26:52;;;;;;;0.30;0.30;;;4.60;99.90;;;;;;4970818;28;20274;-89
2022/01/08 02:29:21;;;;;;;0.40;0.40;;;4.60;99.90;;;;;;4986605;28;20206;-87
2022/01/08 02:32:00;;;;;;;0.30;0.30;;;4.60;99.90;;;;;;4986599;28;20573;-88
2022/01/08 02:34:27;;;;;;;0.33;0.23;;;4.60;99.90;;;;;;4986147;28;20219;-88
2022/01/08 02:36:54;;;;;;;0.30;0.30;;;4.60;99.90;;;;;;4986664;28;20275;-89
2022/01/08 02:39:20;;;;;;;0.20;0.20;;;4.60;99.90;;;;;;4970128;28;20280;-87
2022/01/08 02:41:46;;;;;;;0.70;0.70;;;4.50;99.90;;;;;;4969379;28;20255;-87
2022/01/08 02:44:12;;;;;;;0.20;0.20;;;4.50;99.90;;;;;;4970179;28;20219;-87
2022/01/08 02:46:39;;;;;;;0.20;0.20;;;4.50;99.90;;;;;;4953424;28;20208;-88
2022/01/08 02:49:06;;;;;;;0.20;0.20;;;4.40;99.90;;;;;;4984826;28;20846;-87
2022/01/08 02:51:34;;;;;;;0.30;0.30;;;4.30;99.90;;;;;;5002817;28;20215;-88
2022/01/08 02:54:01;;;;;;;0.20;0.20;;;4.30;99.90;;;;;;4986597;28;20250;-87
2022/01/08 02:56:27;;;;;;;0.30;0.30;;;4.30;99.90;;;;;;4970872;28;20192;-89
2022/01/08 02:58:53;;;;;;;1.20;0.43;;;4.30;99.90;;;;;;4988734;28;20278;-89
2022/01/08 03:01:19;;;;;;;0.30;0.30;;;4.20;99.90;;;;;;4957486;28;20212;-87
2022/01/08 03:03:45;;;;;;;0.20;0.20;;;4.10;99.90;;;;;;4956541;28;20218;-88
2022/01/08 03:06:11;;;;;;;0.30;0.30;;;4.10;99.90;;;;;;4973143;28;20299;-87
2022/01/08 03:08:36;;;;;;;3.10;0.73;;;4.10;99.90;;;;;;4954955;28;20188;-88
2022/01/08 03:11:02;;;;;;;3.33;0.63;;;4.20;99.90;;;;;;4957220;28;20335;-87
2022/01/08 03:13:28;;;;;;;4.33;0.97;;;4.30;99.90;;;;;;4989978;28;20297;-88
2022/01/08 03:15:53;;;;;;;2.00;0.47;;;4.50;99.90;;;;;;4956780;28;20219;-87
2022/01/08 03:18:19;;;;;;;0.30;0.30;;;4.60;99.90;;;;;;4957396;28;20219;-86
2022/01/08 03:20:59;;;;;;;0.60;0.60;;;4.50;99.90;;;;;;4972079;28;20193;-87
2022/01/08 03:23:26;;;;;;;0.40;0.40;;;4.50;99.90;;;;;;4975680;28;20760;-88
2022/01/08 03:25:51;;;;;;;0.40;0.40;;;4.30;99.90;;;;;;4956969;28;20211;-88
2022/01/08 03:28:17;;;;;;;5.70;0.60;;;4.10;99.90;;;;;;4957796;28;20218;-87
2022/01/08 03:30:43;;;;;;;0.20;0.20;;;4.00;99.90;;;;;;4956446;28;20630;-88
2022/01/08 03:33:08;;;;;;;0.63;0.63;;;3.90;99.90;;;;;;4972477;28;20219;-86
2022/01/08 03:35:34;;;;;;;0.30;0.30;;;3.80;99.90;;;;;;4973252;28;20226;-87
2022/01/08 03:38:00;;;;;;;0.40;0.40;;;3.70;99.90;;;;;;4989047;28;20201;-87
2022/01/08 03:40:26;;;;;;;29.83;0.93;;;3.70;99.90;;;;;;4972092;28;20219;-88
2022/01/08 03:42:52;;;;;;;0.30;0.30;;;3.60;99.90;;;;;;4971839;28;20574;-87
2022/01/08 03:45:18;;;;;;;0.40;0.40;;;3.50;99.90;;;;;;4955656;28;20219;-88
2022/01/08 03:50:28;;;;;;;0.30;0.30;;;3.30;99.90;;;;;;4975366;28;20208;-87
2022/01/08 03:52:53;;;;;;;0.40;0.40;;;3.30;99.90;;;;;;4971688;28;20242;-88
2022/01/08 03:55:19;;;;;;;0.30;0.30;;;3.20;99.90;;;;;;4988733;28;20224;-88
2022/01/08 03:57:45;;;;;;;1.63;0.60;;;3.20;99.90;;;;;;4971869;28;20213;-87
2022/01/08 04:00:12;;;;;;;0.83;0.40;;;3.20;99.90;;;;;;4954697;28;20579;-89
2022/01/08 04:02:38;;;;;;;0.40;0.40;;;3.10;99.90;;;;;;4972058;28;20226;-86
2022/01/08 04:05:04;;;;;;;0.30;0.30;;;3.10;99.90;;;;;;4971946;28;20176;-87
2022/01/08 04:07:30;;;;;;;0.30;0.30;;;3.10;99.90;;;;;;4956162;28;20247;-87
2022/01/08 04:09:55;;;;;;;0.33;0.33;;;3.20;99.90;;;;;;4971874;28;20240;-87
2022/01/08 04:12:31;;;;;;;0.30;0.30;;;3.30;99.90;;;;;;4955893;28;20271;-88
2022/01/08 04:15:06;;;;;;;0.30;0.30;;;3.40;99.90;;;;;;4973873;28;20234;-88
2022/01/08 04:17:31;;;;;;;0.30;0.30;;;3.60;99.90;;;;;;4972804;28;20586;-87
2022/01/08 04:19:57;;;;;;;0.40;0.40;;;3.70;99.90;;;;;;4972291;28;20193;-89
2022/01/08 04:22:24;;;;;;;0.40;0.40;;;3.80;99.90;;;;;;4955509;28;20306;-87
2022/01/08 04:24:50;;;;;;;0.30;0.30;;;3.90;99.90;;;;;;4971404;28;20215;-88
2022/01/08 04:27:16;;;;;;;0.50;0.50;;;4.00;99.90;;;;;;4971029;28;20220;-87
2022/01/08 04:29:42;;;;;;;0.30;0.30;;;4.10;99.90;;;;;;4955258;28;20673;-86
2022/01/08 04:32:08;;;;;;;0.20;0.20;;;4.20;99.90;;;;;;4972023;28;20230;-87
2022/01/08 04:34:34;;;;;;;0.20;0.20;;;4.30;99.90;;;;;;4971536;28;20557;-87
2022/01/08 04:37:00;;;;;;;0.83;0.83;;;4.40;99.90;;;;;;4970981;28;20211;-88
2022/01/08 04:39:27;;;;;;;1.53;0.40;;;4.50;99.90;;;;;;4955072;28;20314;-88
2022/01/08 04:41:53;;;;;;;0.40;0.40;;;4.60;99.90;;;;;;4955550;28;20219;-87
2022/01/08 04:44:19;;;;;;;0.30;0.30;;;4.70;99.90;;;;;;4955187;28;20231;-87
2022/01/08 04:46:45;;;;;;;4.47;0.60;;;4.60;99.90;;;;;;4955071;28;20318;-90
2022/01/08 04:49:11;;;;;;;0.40;0.40;;;4.70;99.90;;;;;;4971292;28;20273;-87
2022/01/08 04:51:37;;;;;;;0.70;0.70;;;4.60;99.90;;;;;;4987452;28;20255;-88
2022/01/08 04:54:03;;;;;;;0.30;0.30;;;4.70;99.90;;;;;;4971088;28;20234;-87
2022/01/08 04:56:29;;;;;;;0.30;0.30;;;4.70;99.90;;;;;;4971519;28;20199;-86
2022/01/08 04:58:55;;;;;;;0.37;0.37;;;4.70;99.90;;;;;;4987439;28;20311;-89
2022/01/08 05:01:20;;;;;;;0.20;0.20;;;4.70;99.90;;;;;;4955145;28;20306;-88
2022/01/08 05:03:46;;;;;;;0.60;0.60;;;4.60;99.90;;;;;;4969549;28;20728;-89
2022/01/08 05:06:12;;;;;;;0.33;0.33;;;4.60;99.90;;;;;;4960599;28;20282;-88
2022/01/08 05:08:38;;;;;;;0.37;0.37;;;4.50;99.90;;;;;;4959044;28;20247;-88
2022/01/08 05:11:04;;;;;;;0.97;0.93;;;4.40;99.90;;;;;;4947496;28;20328;-89
2022/01/08 05:13:29;;;;;;;0.83;0.80;;;4.30;99.90;;;;;;4943637;28;20227;-88
2022/01/08 05:15:56;;;;;;;0.30;0.30;;;4.30;99.90;;;;;;4960486;28;20221;-87
2022/01/08 05:18:22;;;;;;;0.27;0.27;;;4.20;99.90;;;;;;4945647;28;20239;-88
2022/01/08 05:20:56;;;;;;;0.60;0.60;;;4.20;99.90;;;;;;4960543;28;20206;-87
2022/01/08 05:23:22;;;;;;;0.40;0.40;;;4.10;99.90;;;;;;4962156;28;20645;-88
2022/01/08 05:25:48;;;;;;;0.40;0.40;;;4.00;99.90;;;;;;4975547;28;20359;-87
2022/01/08 05:28:13;;;;;;;2.13;0.60;;;3.90;99.90;;;;;;4960815;28;20223;-88
2022/01/08 05:30:39;;;;;;;0.40;0.40;;;3.90;99.90;;;;;;4944948;28;20208;-86
2022/01/08 05:33:05;;;;;;;0.77;0.73;;;3.80;99.90;;;;;;4976243;28;20226;-87
2022/01/08 05:35:31;;;;;;;0.30;0.30;;;3.70;99.90;;;;;;4961809;28;20195;-88
2022/01/08 05:37:57;;;;;;;0.23;0.23;;;3.60;99.90;;;;;;4945015;28;20204;-87
2022/01/08 05:40:23;;;;;;;1.70;1.13;;;3.60;99.90;;;;;;4942879;28;20216;-88
2022/01/08 05:42:49;;;;;;;5.40;1.17;;;3.50;99.90;;;;;;4965368;28;20228;-88
2022/01/08 05:45:15;;;;;;;0.77;0.77;;;3.40;99.90;;;;;;4986429;28;20712;-88
2022/01/08 05:47:41;;;;;;;0.30;0.30;;;3.30;99.90;;;;;;4954821;28;20216;-88
2022/01/08 05:50:08;;;;;;;0.30;0.30;;;3.30;99.90;;;;;;4955382;28;20204;-87
2022/01/08 05:52:34;;;;;;;0.30;0.30;;;3.20;99.90;;;;;;4970980;28;20227;-87
2022/01/08 05:55:00;;;;;;;0.40;0.40;;;3.20;99.90;;;;;;5003647;28;20309;-89
2022/01/08 05:57:26;;;;;;;0.30;0.30;;;3.10;99.90;;;;;;4971127;28;20292;-87
2022/01/08 05:59:52;;;;;;;0.20;0.20;;;3.00;99.90;;;;;;4986878;28;20215;-88
2022/01/08 06:02:17;;;;;;;0.30;0.30;;;3.00;99.90;;;;;;4955554;28;20707;-88
2022/01/08 06:04:43;;;;;;;0.30;0.30;;;3.00;99.90;;;;;;4954609;28;21154;-87
2022/01/08 06:07:09;;;;;;;0.63;0.63;;;2.90;99.90;;;;;;4971039;28;20212;-90
2022/01/08 06:09:35;;;;;;;1.00;0.90;;;2.90;99.90;;;;;;4985894;28;20216;-87
2022/01/08 06:12:01;;;;;;;0.70;0.70;;;2.90;99.90;;;;;;4954068;28;20265;-87
2022/01/08 06:14:26;;;;;;;1.60;1.60;;;2.90;99.90;;;;;;4970527;28;20625;-87
2022/01/08 06:16:52;;;;;;;0.30;0.30;;;2.90;99.90;;;;;;4954774;28;20200;-87
2022/01/08 06:19:18;;;;;;;0.77;0.67;;;2.90;99.90;;;;;;4953940;28;20250;-87
2022/01/08 06:21:44;;;;;;;7.00;1.63;;;3.00;99.90;;;;;;4970471;28;20216;-88
2022/01/08 06:24:10;;;;;;;0.40;0.40;;;3.00;99.90;;;;;;4986032;28;20215;-89
2022/01/08 06:26:36;;;;;;;0.30;0.30;;;3.00;99.90;;;;;;4970456;28;20198;-87
2022/01/08 06:29:03;;;;;;;0.30;0.30;;;3.00;99.90;;;;;;4970797;28;20192;-89
2022/01/08 06:31:29;;;;;;;0.30;0.30;;;3.00;99.90;;;;;;4970215;28;20498;-88
2022/01/08 06:33:55;;;;;;;0.27;0.27;;;3.10;99.90;;;;;;4989875;28;20244;-87
2022/01/08 06:36:23;;;;;;;0.57;0.57;;;3.10;99.90;;;;;;4973642;28;20551;-89
2022/01/08 06:38:52;;;;;;;3.10;1.80;;;3.10;99.90;;;;;;4957489;28;20566;-89
2022/01/08 06:41:18;;;;;;;0.57;0.57;;;3.10;99.90;;;;;;4974061;28;20180;-86
2022/01/08 06:43:44;;;;;;;0.67;0.67;;;3.10;99.90;;;;;;4988212;28;20727;-85
2022/01/08 06:46:10;;;;;;;0.23;0.23;;;3.30;99.90;;;;;;4987760;28;20257;-88
2022/01/08 06:48:36;;;;;;;0.57;0.57;;;3.30;99.90;;;;;;4987220;28;20700;-87
2022/01/08 06:51:02;;;;;;;2.53;1.33;;;3.30;99.90;;;;;;4986807;28;20798;-86
2022/01/08 06:53:28;;;;;;;0.33;0.33;;;3.40;99.90;;;;;;4955718;28;20196;-89
2022/01/08 06:55:54;;;;;;;0.40;0.40;;;3.40;99.90;;;;;;4972278;28;20266;-86
2022/01/08 06:58:21;;;;;;;0.97;0.97;;;3.40;99.90;;;;;;4988883;28;20211;-86
2022/01/08 07:00:47;;;;;;;0.40;0.40;;;3.50;99.90;;;;;;4972614;28;20227;-86
2022/01/08 07:03:13;;;;;;;0.50;0.50;;;3.40;99.90;;;;;;4971986;28;20594;-86
2022/01/08 07:05:40;;;;;;;0.70;0.70;;;3.40;99.90;;;;;;4972518;28;20203;-87
2022/01/08 07:08:06;;;;;;;0.97;0.97;;;3.40;99.90;;;;;;4989071;28;20191;-86
2022/01/08 07:10:33;;;;;;;1.23;1.20;;;3.30;99.90;;;;;;4972028;28;20274;-87
2022/01/08 07:12:59;;;;;;;2.10;2.00;;;3.40;99.90;;;;;;4972942;28;20705;-89
2022/01/08 07:15:25;;;;;;;2.03;1.93;;;3.30;99.90;;;;;;4955568;28;20217;-88
2022/01/08 07:17:50;;;;;;;12.97;11.63;;;3.30;99.90;;;;;;4972449;28;20607;-88
2022/01/08 07:20:17;;;;;;;1.70;1.60;;;3.20;99.90;;;;;;4990382;28;20188;-88
2022/01/08 07:22:43;;;;;;;0.63;0.63;;;3.20;99.90;;;;;;4988557;28;20224;-87
2022/01/08 07:25:10;;;;;;;1.37;0.93;;;3.20;99.90;;;;;;4955634;28;20292;-88
2022/01/08 07:27:36;;;;;;;0.40;0.40;;;3.10;99.90;;;;;;4969982;28;21179;-89
2022/01/08 07:30:05;;;;;;;0.30;0.30;;;3.00;99.90;;;;;;4971601;28;20299;-89
2022/01/08 07:32:31;;;;;;;1.07;0.97;;;2.90;99.90;;;;;;4988003;28;20192;-89
2022/01/08 07:34:57;;;;;;;1.23;1.23;;;2.90;99.90;;;;;;4956123;28;20208;-89
2022/01/08 07:37:22;;;;;;;0.60;0.60;;;2.80;99.90;;;;;;4986924;28;20212;-87
2022/01/08 07:39:48;;;;;;;1.47;1.37;;;2.80;99.90;;;;;;4971004;28;20215;-88
2022/01/08 07:42:14;;;;;;;1.07;1.07;;;2.80;99.90;;;;;;4954305;28;20216;-88
2022/01/08 07:44:41;;;;;;;9.97;1.80;;;2.80;99.90;;;;;;4987271;28;20180;-88
2022/01/08 07:47:10;;;;;;;0.23;0.23;;;2.80;99.90;;;;;;4971860;28;20196;-86
2022/01/08 07:49:36;;;;;;;0.27;0.27;;;2.70;99.90;;;;;;4987507;28;20990;-87
2022/01/08 07:52:01;;;;;;;7.83;0.57;;;2.70;99.90;;;;;;4955465;28;20236;-90
2022/01/08 07:54:27;;;;;;;0.87;0.87;;;2.60;99.90;;;;;;4956448;28;20391;-89
2022/01/08 07:56:53;;;;;;;1.33;1.23;;;2.60;99.90;;;;;;4954642;28;20216;-87
2022/01/08 07:59:18;;;;;;;0.73;0.73;;;2.60;99.90;;;;;;4957821;28;20184;-88
2022/01/08 08:01:44;;;;;;;2.63;1.10;;;2.70;99.90;;;;;;4973519;28;20212;-88
2022/01/08 08:04:10;;;;;;;1.77;1.03;;;2.70;99.90;;;;;;4971197;28;20208;-88
2022/01/08 08:06:43;;;;;;;0.67;0.57;;;2.90;99.90;;;;;;4957283;28;20212;-89
2022/01/08 08:09:09;;;;;;;1.43;1.37;;;3.00;99.90;;;;;;4971744;28;20728;-88
2022/01/08 08:11:35;;;;;;;0.30;0.30;;;3.20;99.90;;;;;;4971087;28;20196;-88
2022/01/08 08:14:01;;;;;;;30.70;1.43;;;3.30;99.90;;;;;;4954852;28;20184;-89
2022/01/08 08:16:26;;;;;;;0.57;0.57;;;3.40;99.90;;;;;;4971033;28;20758;-88
2022/01/08 08:18:52;;;;;;;0.83;0.83;;;3.50;99.90;;;;;;4987020;28;20216;-88
2022/01/08 08:21:18;;;;;;;1.03;1.03;;;3.60;99.90;;;;;;4954630;28;20212;-89
2022/01/08 08:23:44;;;;;;;1.13;1.13;;;3.60;99.90;;;;;;4955197;28;20236;-89
2022/01/08 08:26:09;;;;;;;2.07;1.97;;;3.70;99.90;;;;;;4955536;28;20223;-90
2022/01/08 08:28:35;;;;;;;7.00;3.07;;;3.70;99.90;;;;;;4972102;28;20704;-88
2022/01/08 08:31:01;;;;;;;2.33;2.13;;;3.80;99.90;;;;;;4954331;28;20298;-90
2022/01/08 08:33:27;;;;;;;2.07;1.93;;;3.90;99.90;;;;;;4955385;28;20223;-89
2022/01/08 08:35:52;;;;;;;2.27;2.03;;;4.00;99.90;;;;;;4970016;28;20806;-90
2022/01/08 08:38:18;;;;;;;0.90;0.90;;;4.00;99.90;;;;;;4986107;28;20644;-89
2022/01/08 08:40:44;;;;;;;2.10;1.03;;;4.00;99.90;;;;;;4970052;28;20208;-88
2022/01/08 08:43:10;;;;;;;1.17;1.17;;;3.90;99.90;;;;;;4985316;28;20669;-88
2022/01/08 08:45:35;;;;;;;0.60;0.60;;;3.80;99.90;;;;;;4969139;28;20716;-88
2022/01/08 08:48:01;;;;;;;0.97;0.90;;;3.80;99.90;;;;;;4962216;28;20581;-88
2022/01/08 08:50:27;;;;;;;4.07;1.80;;;3.80;99.90;;;;;;4953109;28;20568;-89
2022/01/08 08:52:54;;;;;;;0.80;0.80;;;3.80;99.90;;;;;;4954227;28;20274;-88
2022/01/08 08:55:20;;;;;;;0.57;0.57;;;3.80;99.90;;;;;;4985007;28;20318;-89
2022/01/08 08:57:46;;;;;;;0.77;0.70;;;3.80;99.90;;;;;;4969441;28;20306;-89
2022/01/08 09:00:12;;;;;;;0.60;0.60;;;3.90;99.90;;;;;;4984734;28;20219;-88
2022/01/08 09:02:38;;;;;;;12.30;1.13;;;3.90;99.90;;;;;;4953967;28;20273;-88
2022/01/08 09:05:05;;;;;;;0.83;0.83;;;3.90;99.90;;;;;;4985615;28;20279;-89
2022/01/08 09:07:33;;;;;;;2.47;1.53;;;3.90;99.90;;;;;;4969851;28;20219;-88
2022/01/08 09:09:59;;;;;;;1.03;1.03;;;4.00;99.90;;;;;;4985653;28;20590;-89
2022/01/08 09:12:25;;;;;;;1.40;1.23;;;4.10;99.90;;;;;;4985449;28;20311;-89
2022/01/08 09:14:51;;;;;;;0.70;0.70;;;4.20;99.90;;;;;;5001560;28;20229;-88
2022/01/08 09:17:17;;;;;;;1.97;1.53;;;4.30;99.90;;;;;;4969338;28;20196;-89
2022/01/08 09:19:44;;;;;;;1.50;1.40;;;4.40;99.90;;;;;;4985591;28;20238;-89
2022/01/08 09:22:11;;;;;;;0.97;0.90;;;4.40;99.90;;;;;;4969223;28;20363;-88
2022/01/08 09:24:37;;;;;;;2.67;1.00;;;4.60;99.90;;;;;;4968854;28;20562;-88
2022/01/08 09:27:04;;;;;;;1.37;1.27;;;4.60;99.90;;;;;;4969131;28;20226;-88
2022/01/08 09:29:30;;;;;;;0.70;0.63;;;4.60;99.90;;;;;;4985949;28;20180;-89
2022/01/08 09:31:56;;;;;;;0.30;0.30;;;4.60;99.90;;;;;;4967002;28;20216;-89
2022/01/08 09:34:22;;;;;;;0.70;0.70;;;4.70;99.90;;;;;;4980890;28;20228;-89
2022/01/08 09:36:49;;;;;;;1.17;1.17;;;4.70;99.90;;;;;;4987640;28;20220;-89
2022/01/08 09:39:15;;;;;;;0.60;0.60;;;4.90;99.90;;;;;;4985927;28;20219;-89
2022/01/08 09:41:41;;;;;;;3.23;2.13;;;4.90;99.90;;;;;;5002558;28;20731;-88
2022/01/08 09:44:06;;;;;;;0.77;0.77;;;5.10;99.90;;;;;;4971133;28;20244;-89
2022/01/08 09:46:32;;;;;;;5.07;1.63;;;5.20;99.90;;;;;;4986679;28;20259;-89
2022/01/08 09:48:59;;;;;;;0.70;0.47;;;5.30;99.90;;;;;;4954949;28;20273;-88
2022/01/08 09:51:26;;;;;;;0.73;0.73;;;5.30;99.90;;;;;;4970515;28;20211;-90
2022/01/08 09:53:54;;;;;;;0.67;0.67;;;5.30;99.90;;;;;;4987356;28;20216;-88
2022/01/08 09:56:25;;;;;;;0.60;0.60;;;5.30;99.90;;;;;;4988990;28;20180;-88
2022/01/08 09:58:51;;;;;;;1.50;1.40;;;5.30;99.90;;;;;;4985922;28;20204;-89
2022/01/08 10:01:26;;;;;;;1.73;1.63;;;5.30;99.90;;;;;;4970433;28;20239;-89
2022/01/08 10:03:53;;;;;;;8.80;1.03;;;5.20;99.90;;;;;;4986331;28;20223;-88
2022/01/08 10:06:28;;;;;;;0.60;0.60;;;5.20;99.90;;;;;;4986304;28;20223;-89
2022/01/08 10:08:54;;;;;;;1.17;1.10;;;5.20;99.90;;;;;;5003173;28;20215;-89
2022/01/08 10:11:22;;;;;;;0.80;0.80;;;5.20;99.90;;;;;;4987456;28;20199;-89
2022/01/08 10:13:52;;;;;;;0.80;0.80;;;5.30;99.90;;;;;;4986500;28;20287;-89
2022/01/08 10:19:15;;;;;;;0.60;0.60;;;5.30;99.90;;;;;;4972767;28;20226;-89
2022/01/08 10:21:44;;;;;;;13.13;1.23;;;5.40;99.90;;;;;;4987543;28;20216;-89
2022/01/08 10:24:10;;;;;;;0.87;0.70;;;5.40;99.90;;;;;;4985904;28;20689;-89
2022/01/08 10:26:39;;;;;;;6.07;1.73;;;5.30;99.90;;;;;;4954850;28;20338;-89
2022/01/08 10:29:09;;;;;;;0.97;0.97;;;5.50;99.90;;;;;;4986773;28;20192;-89
2022/01/08 10:31:53;;;;;;;1.00;1.00;;;5.50;99.90;;;;;;4987235;28;20220;-89
2022/01/08 10:34:19;;;;;;;0.53;0.50;;;5.50;99.90;;;;;;4986401;28;20204;-89
2022/01/08 10:37:04;;;;;;;13.67;0.97;;;5.60;99.90;;;;;;5001917;28;20208;-89
2022/01/08 10:39:33;;;;;;;0.57;0.57;;;5.60;99.90;;;;;;4983531;28;20569;-89
2022/01/08 10:42:01;;;;;;;0.70;0.70;;;5.50;99.90;;;;;;4999710;28;20590;-90
2022/01/08 10:44:31;;;;;;;4.73;1.70;;;5.50;99.90;;;;;;4984972;28;20231;-89
2022/01/08 10:46:59;;;;;;;2.53;1.30;;;5.60;99.90;;;;;;4978664;28;20288;-88
2022/01/08 10:49:37;;;;;;;2.10;1.23;;;5.60;99.90;;;;;;4985239;28;20191;-89
2022/01/08 10:52:09;;;;;;;2.90;0.87;;;5.50;99.90;;;;;;4984401;28;20219;-89
2022/01/08 10:54:36;;;;;;;1.00;1.00;;;5.60;99.90;;;;;;4984447;28;20227;-89
2022/01/08 10:57:07;;;;;;;3.63;1.07;;;5.60;99.90;;;;;;4992649;28;20764;-88
2022/01/08 10:59:34;;;;;;;0.97;0.87;;;5.60;99.90;;;;;;4985179;28;20934;-88
2022/01/08 11:02:03;;;;;;;0.80;0.67;;;5.70;99.90;;;;;;4952755;28;20219;-88
2022/01/08 11:04:46;;;;;;;1.33;0.87;;;5.80;99.90;;;;;;4985425;28;20653;-89
2022/01/08 11:07:22;;;;;;;1.00;1.00;;;5.70;99.90;;;;;;5000970;28;20227;-88
2022/01/08 11:09:59;;;;;;;1.00;1.00;;;5.70;99.90;;;;;;5001219;28;20214;-90
2022/01/08 11:12:34;;;;;;;0.80;0.67;;;5.80;99.90;;;;;;4985540;28;20211;-90
2022/01/08 11:17:49;;;;;;;1.40;1.10;;;5.90;99.90;;;;;;4987962;28;20226;-89
2022/01/08 11:20:28;;;;;;;1.30;1.23;;;5.90;99.90;;;;;;4988514;28;20219;-90
2022/01/08 11:22:57;;;;;;;1.13;1.00;;;5.90;99.90;;;;;;4987191;28;20211;-89
2022/01/08 11:25:25;;;;;;;0.90;0.90;;;5.90;99.90;;;;;;4988931;28;20196;-90
2022/01/08 11:28:00;;;;;;;0.80;0.77;;;5.90;99.90;;;;;;4971694;28;20223;-90
2022/01/08 11:30:34;;;;;;;3.30;3.00;;;6.00;99.90;;;;;;4988390;28;20223;-90
2022/01/08 11:33:06;;;;;;;0.60;0.60;;;5.90;99.90;;;;;;4988174;28;20759;-90
2022/01/08 11:35:35;;;;;;;1.73;1.63;;;5.90;99.90;;;;;;4987949;28;20220;-90
2022/01/08 11:38:04;;;;;;;0.83;0.83;;;5.90;99.90;;;;;;4987456;28;20191;-90
2022/01/08 11:40:31;;;;;;;0.87;0.87;;;5.90;99.90;;;;;;4957600;28;20219;-90
2022/01/08 11:43:01;;;;;;;0.93;0.93;;;5.90;99.90;;;;;;4971226;28;20239;-89
2022/01/08 11:45:30;;;;;;;1.27;1.27;;;6.00;99.90;;;;;;4988619;28;20223;-89
2022/01/08 11:47:58;;;;;;;1.07;1.07;;;5.90;99.90;;;;;;4988300;28;20728;-89
2022/01/08 11:50:28;;;;;;;0.50;0.50;;;6.00;99.90;;;;;;4971862;28;20230;-89
2022/01/08 11:53:13;;;;;;;1.20;0.93;;;6.00;99.90;;;;;;4987390;28;20228;-89
2022/01/08 11:55:39;;;;;;;2.80;0.97;;;6.00;99.90;;;;;;5003925;28;20216;-90
2022/01/08 11:58:23;;;;;;;0.53;0.53;;;6.00;99.90;;;;;;4988409;28;20279;-89
2022/01/08 12:01:11;;;;;;;0.60;0.60;;;6.00;99.90;;;;;;4987182;28;20218;-89
2022/01/08 12:03:52;;;;;;;1.70;1.43;;;6.00;99.90;;;;;;4987847;28;20298;-89
2022/01/08 12:08:56;;;;;;;1.67;1.30;;;6.10;99.90;;;;;;4987771;28;20242;-89
2022/01/08 12:11:24;;;;;;;1.47;1.37;;;6.10;99.90;;;;;;4988460;28;20230;-90
2022/01/08 12:13:50;;;;;;;1.33;1.17;;;6.10;99.90;;;;;;4971433;28;20641;-88
2022/01/08 12:16:40;;;;;;;3.07;1.17;;;6.10;99.90;;;;;;4972750;28;20271;-89
2022/01/08 12:19:08;;;;;;;2.87;2.47;;;6.10;99.90;;;;;;4988974;28;20276;-88
2022/01/08 12:21:37;;;;;;;2.17;2.07;;;6.10;99.90;;;;;;4972150;28;20211;-88
2022/01/08 12:24:28;;;;;;;2.33;2.17;;;5.90;99.90;;;;;;4988840;28;20290;-88
2022/01/08 12:26:55;;;;;;;2.90;2.60;;;5.80;99.90;;;;;;4989014;28;20715;-88
2022/01/08 12:29:42;;;;;;;2.77;2.57;;;5.80;99.90;;;;;;4970879;28;20216;-88
2022/01/08 12:32:26;;;;;;;1.73;1.63;;;5.70;99.90;;;;;;4988148;28;20311;-88
2022/01/08 12:35:01;;;;;;;2.50;2.07;;;5.70;99.90;;;;;;4988643;28;20183;-88
2022/01/08 12:37:40;;;;;;;2.23;2.10;;;5.60;99.90;;;;;;4973905;28;20188;-88
2022/01/08 12:40:09;;;;;;;2.43;1.87;;;5.60;99.90;;;;;;4987875;28;20664;-88
2022/01/08 12:42:38;;;;;;;1.40;1.33;;;5.60;99.90;;;;;;4987376;28;20212;-89
2022/01/08 12:45:35;;;;;;;2.03;1.93;;;5.50;99.90;;;;;;4987774;28;20216;-90
2022/01/08 12:48:00;;;;;;;1.63;1.53;;;5.50;99.90;;;;;;4988017;28;20220;-88
2022/01/08 12:50:39;;;;;;;12.23;2.20;;;5.40;99.90;;;;;;4987728;28;20223;-88
2022/01/08 12:53:05;;;;;;;1.23;0.90;;;5.40;99.90;;;;;;4986690;28;20212;-87
2022/01/08 12:55:36;;;;;;;0.97;0.97;;;5.40;99.90;;;;;;4987160;28;20226;-90
2022/01/08 12:58:19;;;;;;;2.40;1.97;;;5.40;99.90;;;;;;4969757;28;20859;-89
2022/01/08 13:01:01;;;;;;;9.80;3.27;;;5.40;99.90;;;;;;4985965;28;20235;-88
2022/01/08 13:03:38;;;;;;;1.77;1.10;;;5.40;99.90;;;;;;4986377;28;20238;-86
2022/01/08 13:06:18;;;;;;;0.97;0.97;;;5.30;99.90;;;;;;4986596;28;20223;-86
2022/01/08 13:08:46;;;;;;;0.40;0.40;;;5.40;99.90;;;;;;5003962;28;20626;-86
2022/01/08 13:11:17;;;;;;;0.40;0.40;;;5.30;99.90;;;;;;4970475;28;20306;-86
2022/01/08 13:13:50;;;;;;;0.50;0.50;;;5.30;99.90;;;;;;4986930;28;20183;-87
2022/01/08 13:16:22;;;;;;;0.67;0.60;;;5.30;99.90;;;;;;5001480;28;20298;-86
2022/01/08 13:18:50;;;;;;;0.50;0.50;;;5.30;99.90;;;;;;4988312;28;20488;-87
2022/01/08 13:21:16;;;;;;;0.73;0.73;;;5.20;99.90;;;;;;4987240;28;20223;-89
2022/01/08 13:23:53;;;;;;;0.90;0.90;;;5.20;99.90;;;;;;4971401;28;20333;-86
2022/01/08 13:26:40;;;;;;;0.73;0.47;;;5.20;99.90;;;;;;4986411;28;20223;-88
2022/01/08 13:29:29;;;;;;;0.30;0.30;;;5.20;99.90;;;;;;4988437;28;20220;-86
2022/01/08 13:31:59;;;;;;;0.50;0.50;;;5.20;99.90;;;;;;4986766;28;20195;-86